Time;durP1;ratioP1;P1;durP2;ratioP2;P2;SDS_P1;SDS_P2;PMS_P1;PMS_P2;Temp;Humidity;BMP_temperature;BMP_pressure;BME280_temperature;BME280_humidity;BME280_pressure;Samples;Min_cycle;Max_cycle;Signal;HPM_P1;HPM_P2
2023/12/23 00:00:28;;;;;;;2.90;0.47;;;;;;;6.98;90.32;99943.63;5095212;28;20425;-75
2023/12/23 00:03:31;;;;;;;;;;;;;;;6.90;92.37;99935.38;5095535;28;20043;-75
2023/12/23 00:06:34;;;;;;;5.53;0.75;;;;;;;6.99;93.32;99942.75;5095102;28;20282;-75
2023/12/23 00:09:37;;;;;;;4.65;0.60;;;;;;;7.13;92.95;99953.31;5095256;28;20043;-75
2023/12/23 00:12:40;;;;;;;;;;;;;;;6.91;94.16;99945.69;5095191;28;20050;-75
2023/12/23 00:15:43;;;;;;;1.75;0.30;;;;;;;7.02;93.55;99934.78;5092552;22;20010;-75
2023/12/23 00:18:47;;;;;;;2.53;0.32;;;;;;;7.22;93.90;99941.66;5074730;28;20047;-75
2023/12/23 00:21:50;;;;;;;3.13;0.38;;;;;;;7.18;93.64;99956.56;5075130;28;20079;-75
2023/12/23 00:24:54;;;;;;;2.05;0.50;;;;;;;7.15;94.48;99943.69;5074824;28;20063;-75
2023/12/23 00:27:57;;;;;;;3.47;0.60;;;;;;;7.08;94.06;99960.47;5074685;28;20070;-75
2023/12/23 00:31:00;;;;;;;5.03;0.63;;;;;;;7.30;94.70;99960.31;5073932;28;20408;-75
2023/12/23 00:34:04;;;;;;;;;;;;;;;7.37;94.05;99960.84;5075416;28;20167;-75
2023/12/23 00:37:07;;;;;;;;;;;;;;;7.47;93.99;99956.91;5074748;28;19935;-75
2023/12/23 00:40:10;;;;;;;3.72;0.57;;;;;;;7.34;94.21;99967.06;5073977;28;20388;-75
2023/12/23 00:43:13;;;;;;;;;;;;;;;7.52;93.85;99970.53;5073958;28;20082;-75
2023/12/23 00:46:16;;;;;;;2.70;0.47;;;;;;;7.47;95.85;99962.13;5074098;28;19919;-75
2023/12/23 00:49:19;;;;;;;4.13;0.50;;;;;;;7.51;96.51;99958.44;5074071;28;20059;-75
2023/12/23 00:52:23;;;;;;;3.60;0.82;;;;;;;7.58;96.63;99970.22;5073093;28;20040;-75
2023/12/23 00:55:26;;;;;;;5.35;0.85;;;;;;;7.53;95.09;99955.75;5061591;28;20044;-76
2023/12/23 00:58:29;;;;;;;;;;;;;;;7.47;95.69;99962.13;5073446;28;20120;-76
2023/12/23 01:01:35;;;;;;;4.40;0.70;;;;;;;7.49;96.80;99968.06;5073290;28;19924;-77
2023/12/23 01:04:38;;;;;;;2.15;0.52;;;;;;;7.56;94.94;99974.69;5072785;28;20044;-77
2023/12/23 01:07:42;;;;;;;6.00;1.08;;;;;;;7.59;94.52;99987.50;5073070;28;20472;-77
2023/12/23 01:10:46;;;;;;;3.05;0.45;;;;;;;7.55;94.56;99983.38;5073525;28;20044;-77
2023/12/23 01:13:49;;;;;;;;;;;;;;;7.52;96.84;99980.09;5073987;28;20131;-77
2023/12/23 01:16:52;;;;;;;2.35;0.80;;;;;;;7.30;96.66;99973.31;5073291;28;20400;-77
2023/12/23 01:19:55;;;;;;;3.58;0.73;;;;;;;7.44;96.53;99988.28;5073584;28;20093;-77
2023/12/23 01:22:58;;;;;;;;;;;;;;;7.15;95.83;99982.69;5073830;28;20550;-76
2023/12/23 01:26:01;;;;;;;2.72;0.70;;;;;;;7.14;96.14;99977.56;5072487;28;19923;-76
2023/12/23 01:29:05;;;;;;;1.95;0.40;;;;;;;7.15;97.72;99984.47;5072413;28;20048;-76
2023/12/23 01:32:08;;;;;;;;;;;;;;;7.13;96.92;99988.88;5073667;28;20040;-76
2023/12/23 01:35:11;;;;;;;4.18;0.65;;;;;;;7.25;97.64;99987.47;5073212;28;19943;-76
2023/12/23 01:38:14;;;;;;;2.13;0.47;;;;;;;7.13;97.83;100000.13;5073060;28;20067;-76
2023/12/23 01:41:18;;;;;;;2.85;0.60;;;;;;;7.06;98.54;100001.31;5073086;28;20048;-76
2023/12/23 01:44:22;;;;;;;3.13;0.50;;;;;;;6.96;99.38;100005.25;5072388;28;20074;-76
2023/12/23 01:47:25;;;;;;;;;;;;;;;6.98;98.33;100011.22;5073731;28;20055;-76
2023/12/23 01:50:29;;;;;;;2.37;0.70;;;;;;;7.06;98.32;100006.53;5072219;28;19920;-76
2023/12/23 01:53:33;;;;;;;3.05;0.40;;;;;;;7.27;97.99;100002.06;5073198;28;20048;-76
2023/12/23 01:56:37;;;;;;;2.00;0.38;;;;;;;7.23;98.28;100003.97;5071936;28;20128;-76
2023/12/23 01:59:40;;;;;;;;;;;;;;;7.22;98.16;100010.09;5072430;28;20044;-76
2023/12/23 02:02:44;;;;;;;2.17;0.40;;;;;;;7.35;98.00;100007.75;5072845;28;19927;-76
2023/12/23 02:05:47;;;;;;;2.13;0.52;;;;;;;7.37;97.68;100011.13;5072225;28;20090;-76
2023/12/23 02:08:50;;;;;;;4.60;0.70;;;;;;;7.29;98.75;100022.81;5072845;28;20043;-76
2023/12/23 02:12:15;;;;;;;3.13;0.50;;;;;;;6.98;98.96;100016.41;5072634;28;20036;-76
2023/12/23 02:15:21;;;;;;;1.52;0.35;;;;;;;7.07;99.80;100002.16;5072528;28;20051;-76
2023/12/23 02:18:23;;;;;;;2.78;0.68;;;;;;;7.26;100.00;100009.94;5071624;28;20106;-76
2023/12/23 02:21:27;;;;;;;1.33;0.30;;;;;;;7.17;99.86;100006.00;5072412;28;20047;-76
2023/12/23 02:24:32;;;;;;;2.00;0.30;;;;;;;7.23;100.00;99992.72;5071702;28;20043;-76
2023/12/23 02:27:43;;;;;;;3.08;0.40;;;;;;;7.19;100.00;99999.00;5072517;28;20039;-76
2023/12/23 02:30:49;;;;;;;1.70;0.20;;;;;;;7.30;98.69;99983.72;5071579;28;20082;-76
2023/12/23 02:33:54;;;;;;;2.58;0.55;;;;;;;7.19;98.61;99983.41;5071749;28;20059;-77
2023/12/23 02:36:57;;;;;;;2.15;0.40;;;;;;;7.14;100.00;99980.16;5071694;28;20170;-76
2023/12/23 02:40:01;;;;;;;4.30;0.95;;;;;;;7.12;100.00;99967.25;5072519;28;20413;-74
2023/12/23 02:43:04;;;;;;;1.70;0.30;;;;;;;7.02;100.00;99954.72;5076134;28;20039;-74
2023/12/23 02:46:08;;;;;;;4.85;0.70;;;;;;;7.15;100.00;99974.91;5075405;28;20051;-75
2023/12/23 02:49:12;;;;;;;3.55;0.50;;;;;;;7.23;100.00;99964.13;5076332;28;20059;-74
2023/12/23 02:52:17;;;;;;;3.17;0.50;;;;;;;7.12;99.59;99962.03;5076225;28;20040;-75
2023/12/23 02:55:21;;;;;;;3.25;0.85;;;;;;;7.15;99.53;99966.25;5075361;28;20073;-74
2023/12/23 02:58:24;;;;;;;;;;;;;;;7.15;99.24;99967.09;5076582;28;20557;-75
2023/12/23 03:01:27;;;;;;;2.60;0.35;;;;;;;7.34;100.00;99981.81;5076052;28;20415;-76
2023/12/23 03:04:32;;;;;;;4.93;0.98;;;;;;;7.30;99.85;99969.88;5076020;28;20040;-76
2023/12/23 03:07:36;;;;;;;2.92;0.40;;;;;;;7.25;99.11;99977.06;5074996;28;20048;-76
2023/12/23 03:10:40;;;;;;;2.22;0.50;;;;;;;7.22;100.00;99965.88;5075814;28;20692;-75
2023/12/23 03:13:44;;;;;;;2.67;0.77;;;;;;;7.21;100.00;99955.53;5075881;28;20050;-76
2023/12/23 03:16:48;;;;;;;5.63;0.60;;;;;;;7.21;100.00;99958.13;5075556;28;20070;-76
2023/12/23 03:19:54;;;;;;;;;;;;;;;7.15;100.00;99950.66;5076209;28;20460;-75
2023/12/23 03:22:58;;;;;;;1.35;0.40;;;;;;;7.20;100.00;99948.66;5075736;28;19924;-75
2023/12/23 03:26:01;;;;;;;6.43;0.88;;;;;;;7.34;99.77;99948.88;5075608;28;20094;-75
2023/12/23 03:29:07;;;;;;;3.08;0.70;;;;;;;7.18;100.00;99945.31;5075376;28;20040;-75
2023/12/23 03:32:11;;;;;;;3.00;0.57;;;;;;;7.31;100.00;99940.38;5074641;28;20039;-75
2023/12/23 03:35:14;;;;;;;;;;;;;;;7.48;100.00;99931.75;5075879;28;20094;-75
2023/12/23 03:38:17;;;;;;;3.80;0.73;;;;;;;7.51;100.00;99926.38;5075620;28;19935;-75
2023/12/23 03:41:20;;;;;;;2.75;0.77;;;;;;;7.52;99.64;99928.06;5075224;28;20043;-75
2023/12/23 03:44:23;;;;;;;6.07;1.05;;;;;;;7.60;100.00;99936.34;5075276;28;20066;-75
2023/12/23 03:47:27;;;;;;;;;;;;;;;7.65;100.00;99927.38;5075677;28;20047;-75
2023/12/23 03:50:30;;;;;;;3.40;0.52;;;;;;;7.65;100.00;99919.56;5075217;28;19978;-74
2023/12/23 03:53:33;;;;;;;4.03;0.43;;;;;;;7.69;100.00;99921.13;5074117;28;20413;-75
2023/12/23 03:56:37;;;;;;;;;;;;;;;7.73;100.00;99906.19;5075392;28;20054;-75
2023/12/23 03:59:40;;;;;;;4.07;0.93;;;;;;;7.65;100.00;99892.72;5075079;28;19920;-75
2023/12/23 04:02:43;;;;;;;4.97;0.88;;;;;;;7.71;99.28;99901.97;5074998;28;20067;-75
2023/12/23 04:05:46;;;;;;;;;;;;;;;7.61;99.73;99907.63;5075375;28;20107;-75
2023/12/23 04:08:49;;;;;;;3.83;1.02;;;;;;;7.58;99.79;99893.94;5074919;28;19929;-75
2023/12/23 04:11:53;;;;;;;3.67;0.65;;;;;;;7.70;100.00;99880.31;5074742;28;20047;-75
2023/12/23 04:14:56;;;;;;;7.25;1.08;;;;;;;7.75;99.40;99882.69;5074562;28;20068;-75
2023/12/23 04:17:59;;;;;;;3.58;0.80;;;;;;;7.82;99.01;99884.91;5075159;28;20067;-75
2023/12/23 04:21:03;;;;;;;9.70;2.80;;;;;;;7.81;97.92;99887.56;5073727;28;20052;-75
2023/12/23 04:24:06;;;;;;;6.93;1.63;;;;;;;7.80;99.20;99880.69;5073717;28;20044;-75
2023/12/23 04:27:09;;;;;;;4.32;0.88;;;;;;;7.85;97.91;99874.34;5074449;28;20093;-74
2023/12/23 04:30:12;;;;;;;4.97;0.88;;;;;;;7.88;96.42;99873.31;5074438;28;20453;-75
2023/12/23 04:33:15;;;;;;;;;;;;;;;8.01;97.38;99863.97;5073979;28;20048;-74
2023/12/23 04:36:19;;;;;;;5.38;1.10;;;;;;;7.97;96.62;99865.03;5062175;28;19935;-75
2023/12/23 04:39:22;;;;;;;;;;;;;;;8.02;96.96;99868.25;5074636;28;20089;-75
2023/12/23 04:42:25;;;;;;;8.80;1.75;;;;;;;7.96;96.88;99858.16;5073348;28;19978;-75
2023/12/23 04:45:28;;;;;;;5.88;1.10;;;;;;;7.95;97.25;99851.28;5073578;28;20429;-74
2023/12/23 04:48:32;;;;;;;;;;;;;;;7.91;97.70;99853.19;5074515;28;20508;-74
2023/12/23 04:51:35;;;;;;;6.00;1.35;;;;;;;7.94;98.15;99854.78;5073184;28;20295;-74
2023/12/23 04:54:38;;;;;;;;;;;;;;;7.85;97.83;99844.88;5074422;28;20051;-74
2023/12/23 04:57:42;;;;;;;4.28;1.25;;;;;;;7.92;99.56;99854.03;5073078;28;19966;-74
2023/12/23 05:00:46;;;;;;;8.45;1.55;;;;;;;7.82;99.06;99856.28;5073716;28;20405;-74
2023/12/23 05:03:50;;;;;;;6.45;1.65;;;;;;;7.82;99.75;99860.66;5072715;28;20051;-75
2023/12/23 05:06:57;;;;;;;9.13;1.55;;;;;;;7.93;100.00;99856.53;5072886;28;20405;-75
2023/12/23 05:10:03;;;;;;;8.40;1.55;;;;;;;7.91;99.22;99852.34;5072737;28;20582;-75
2023/12/23 05:13:07;;;;;;;6.15;1.23;;;;;;;7.86;100.00;99851.75;5072710;28;20038;-74
2023/12/23 05:16:10;;;;;;;5.80;0.90;;;;;;;7.91;100.00;99848.00;5072435;28;20082;-74
2023/12/23 05:19:14;;;;;;;4.22;1.10;;;;;;;7.88;100.00;99853.34;5072575;28;20090;-74
2023/12/23 05:22:18;;;;;;;4.60;1.20;;;;;;;7.89;100.00;99835.97;5073259;28;20046;-74
2023/12/23 05:25:21;;;;;;;;;;;;;;;7.92;100.00;99843.63;5073662;28;20047;-74
2023/12/23 05:28:24;;;;;;;7.30;1.08;;;;;;;7.91;100.00;99831.50;5073273;28;19919;-74
2023/12/23 05:31:27;;;;;;;;;;;;;;;7.96;99.24;99833.88;5073663;28;20127;-75
2023/12/23 05:34:30;;;;;;;5.47;1.17;;;;;;;7.98;100.00;99838.09;5073170;28;20005;-75
2023/12/23 05:37:34;;;;;;;;;;;;;;;7.90;100.00;99819.44;5073562;28;20066;-75
2023/12/23 05:40:37;;;;;;;6.80;1.50;;;;;;;7.89;100.00;99828.16;5073084;28;20388;-75
2023/12/23 05:43:40;;;;;;;5.45;1.55;;;;;;;7.89;100.00;99829.00;5073093;28;20406;-75
2023/12/23 05:46:43;;;;;;;3.70;0.93;;;;;;;7.89;100.00;99826.41;5073071;28;20075;-75
2023/12/23 05:49:50;;;;;;;;;;;;;;;7.96;100.00;99819.09;5073107;28;20062;-75
2023/12/23 05:52:53;;;;;;;7.28;1.23;;;;;;;7.95;100.00;99827.84;5071669;28;19938;-75
2023/12/23 05:55:58;;;;;;;5.50;1.17;;;;;;;7.89;100.00;99830.78;5072709;28;20087;-75
2023/12/23 05:59:01;;;;;;;5.53;1.65;;;;;;;7.97;100.00;99831.19;5072884;28;20043;-75
2023/12/23 06:02:04;;;;;;;5.68;0.88;;;;;;;7.99;100.00;99826.75;5072842;28;20567;-75
2023/12/23 06:05:07;;;;;;;;;;;;;;;7.95;100.00;99827.84;5073196;28;20042;-75
2023/12/23 06:08:11;;;;;;;5.97;1.95;;;;;;;8.07;100.00;99821.13;5073064;28;19922;-75
2023/12/23 06:11:15;;;;;;;3.83;2.10;;;;;;;8.02;100.00;99805.75;5071212;28;20101;-75
2023/12/23 06:14:18;;;;;;;4.45;0.77;;;;;;;8.06;100.00;99815.09;5072545;28;20079;-75
2023/12/23 06:17:21;;;;;;;6.15;1.10;;;;;;;8.06;100.00;99824.66;5070847;28;20504;-75
2023/12/23 06:20:25;;;;;;;4.85;0.93;;;;;;;8.07;100.00;99803.78;5072551;28;20086;-75
2023/12/23 06:23:28;;;;;;;;;;;;;;;8.04;100.00;99793.53;5073141;28;20281;-74
2023/12/23 06:26:31;;;;;;;5.07;1.02;;;;;;;8.04;100.00;99801.34;5072616;28;19918;-75
2023/12/23 06:29:34;;;;;;;5.57;1.02;;;;;;;8.05;100.00;99782.19;5072604;28;20044;-75
2023/12/23 06:32:38;;;;;;;6.10;0.95;;;;;;;8.13;98.87;99816.44;5072896;28;20460;-75
2023/12/23 06:35:41;;;;;;;4.85;0.95;;;;;;;8.08;100.00;99797.63;5072239;28;20089;-74
2023/12/23 06:38:45;;;;;;;;;;;;;;;8.08;99.96;99802.84;5072431;28;20075;-74
2023/12/23 06:41:50;;;;;;;4.80;0.90;;;;;;;8.09;99.42;99794.09;5072442;28;19939;-74
2023/12/23 06:44:53;;;;;;;4.97;1.38;;;;;;;8.13;99.57;99805.19;5072392;28;20047;-75
2023/12/23 06:47:56;;;;;;;;;;;;;;;8.15;98.84;99796.38;5072867;28;20059;-74
2023/12/23 06:50:59;;;;;;;4.93;0.60;;;;;;;8.23;99.11;99805.53;5069695;28;19923;-74
2023/12/23 06:54:03;;;;;;;4.55;0.80;;;;;;;8.20;99.12;99800.47;5072338;28;20040;-75
2023/12/23 06:57:06;;;;;;;;;;;;;;;8.18;98.36;99797.16;5072714;28;20107;-74
2023/12/23 07:00:09;;;;;;;5.15;1.02;;;;;;;8.11;100.00;99802.69;5071789;28;19934;-74
2023/12/23 07:03:13;;;;;;;2.38;0.50;;;;;;;8.14;99.60;99801.69;5072135;28;20044;-75
2023/12/23 07:06:16;;;;;;;;;;;;;;;8.12;100.00;99809.56;5071542;28;20516;-74
2023/12/23 07:09:23;;;;;;;5.17;1.10;;;;;;;8.09;100.00;99791.50;5069848;28;19923;-76
2023/12/23 07:12:29;;;;;;;5.85;0.70;;;;;;;8.09;100.00;99804.50;5069600;28;20246;-75
2023/12/23 07:15:33;;;;;;;;;;;;;;;8.14;100.00;99797.31;5068599;28;20057;-76
2023/12/23 07:18:36;;;;;;;4.38;0.70;;;;;;;8.15;100.00;99800.75;5064637;28;19923;-73
2023/12/23 07:21:40;;;;;;;4.03;0.70;;;;;;;8.12;100.00;99804.34;5067384;28;20043;-72
2023/12/23 07:24:43;;;;;;;3.13;0.68;;;;;;;8.17;100.00;99793.69;5064996;28;20055;-75
2023/12/23 07:27:46;;;;;;;;;;;;;;;8.10;100.00;99790.59;5070047;28;20052;-75
2023/12/23 07:30:49;;;;;;;3.58;0.70;;;;;;;8.11;100.00;99794.03;5067490;28;19923;-76
2023/12/23 07:33:52;;;;;;;;;;;;;;;8.06;100.00;99802.06;5075546;28;20491;-75
2023/12/23 07:36:56;;;;;;;4.70;1.50;;;;;;;8.09;100.00;99804.50;5059067;28;19965;-75
2023/12/23 07:39:59;;;;;;;;;;;;;;;8.12;100.00;99809.56;5074568;28;20050;-75
2023/12/23 07:43:02;;;;;;;3.92;0.80;;;;;;;8.04;100.00;99806.53;5060010;28;20004;-75
2023/12/23 07:46:08;;;;;;;4.47;1.15;;;;;;;8.10;100.00;99803.59;5073585;28;20039;-75
2023/12/23 07:49:13;;;;;;;4.10;2.53;;;;;;;8.08;100.00;99802.84;5062068;28;20051;-76
2023/12/23 07:52:19;;;;;;;5.13;1.08;;;;;;;8.20;99.72;99810.91;5074477;28;20447;-75
2023/12/23 07:55:23;;;;;;;3.25;0.98;;;;;;;8.18;100.00;99807.56;5062974;28;20124;-75
2023/12/23 07:58:27;;;;;;;5.97;2.42;;;;;;;8.24;99.16;99802.84;5072024;28;20043;-75
2023/12/23 08:01:32;;;;;;;5.13;2.28;;;;;;;8.26;98.67;99810.56;5074127;28;20043;-75
2023/12/23 08:04:35;;;;;;;6.40;2.78;;;;;;;8.25;99.38;99799.31;5073224;28;20051;-75
2023/12/23 08:07:41;;;;;;;3.60;1.23;;;;;;;8.37;98.49;99787.41;5072999;28;20047;-75
2023/12/23 08:10:45;;;;;;;4.18;1.48;;;;;;;8.34;97.31;99793.63;5071171;28;20039;-75
2023/12/23 08:13:48;;;;;;;;;;;;;;;8.32;98.74;99805.03;5073207;28;20043;-75
2023/12/23 08:16:52;;;;;;;2.40;0.68;;;;;;;8.37;97.15;99835.13;5072750;28;19939;-75
2023/12/23 08:19:55;;;;;;;3.30;0.43;;;;;;;8.30;98.90;99793.88;5071800;28;20499;-75
2023/12/23 08:22:58;;;;;;;;;;;;;;;8.35;98.65;99797.06;5071808;28;20051;-74
2023/12/23 08:26:01;;;;;;;2.17;0.52;;;;;;;8.31;98.85;99805.97;5071262;28;19973;-75
2023/12/23 08:29:05;;;;;;;;;;;;;;;8.29;99.82;99805.19;5072905;28;20036;-75
2023/12/23 08:32:09;;;;;;;2.97;0.60;;;;;;;8.24;99.73;99807.22;5072506;28;20388;-74
2023/12/23 08:35:12;;;;;;;2.63;0.80;;;;;;;8.12;100.00;99829.56;5069560;28;20101;-75
2023/12/23 08:38:15;;;;;;;;;;;;;;;8.05;100.00;99817.78;5071466;28;20106;-74
2023/12/23 08:41:18;;;;;;;3.00;0.60;;;;;;;8.04;100.00;99811.75;5072144;28;20707;-74
2023/12/23 08:44:22;;;;;;;;;;;;;;;8.03;100.00;99820.47;5072420;28;20123;-75
2023/12/23 08:47:24;;;;;;;2.72;0.70;;;;;;;8.02;100.00;99812.75;5071311;28;19973;-74
2023/12/23 08:50:28;;;;;;;1.83;0.52;;;;;;;7.99;100.00;99824.16;5069997;28;20476;-74
2023/12/23 08:53:31;;;;;;;2.95;0.38;;;;;;;8.03;100.00;99807.44;5071996;28;20042;-74
2023/12/23 08:56:35;;;;;;;4.32;1.38;;;;;;;8.09;100.00;99808.88;5070764;28;20508;-74
2023/12/23 08:59:39;;;;;;;;;;;;;;;8.10;100.00;99793.19;5071780;28;20044;-74
2023/12/23 09:02:42;;;;;;;1.55;0.20;;;;;;;8.11;100.00;99781.00;5071927;28;19981;-75
2023/12/23 09:05:46;;;;;;;1.05;0.22;;;;;;;8.08;100.00;99781.19;5069335;28;20140;-75
2023/12/23 09:08:51;;;;;;;;;;;;;;;8.14;100.00;99789.50;5072660;28;20413;-74
2023/12/23 09:11:54;;;;;;;6.15;0.38;;;;;;;8.13;100.00;99806.03;5072419;28;19981;-74
2023/12/23 09:15:00;;;;;;;;;;;;;;;8.15;100.00;99808.56;5071947;28;20051;-77
2023/12/23 09:18:04;;;;;;;2.72;0.40;;;;;;;8.18;100.00;99784.13;5069033;28;19919;-75
2023/12/23 09:21:07;;;;;;;;;;;;;;;8.23;100.00;99797.72;5070047;28;20078;-76
2023/12/23 09:24:11;;;;;;;;;;;;;;;8.23;100.00;99795.97;5068359;28;19928;-78
2023/12/23 09:27:14;;;;;;;2.08;0.40;;;;;;;8.23;100.00;99808.13;5068761;28;19973;-78
2023/12/23 09:30:17;;;;;;;;;;;;;;;8.25;100.00;99804.53;5072037;28;20085;-75
2023/12/23 09:33:22;;;;;;;1.52;0.60;;;;;;;8.28;100.00;99806.97;5070269;28;19957;-75
2023/12/23 09:36:26;;;;;;;1.85;0.35;;;;;;;8.37;100.00;99816.88;5069623;28;20075;-76
2023/12/23 09:39:29;;;;;;;;;;;;;;;8.47;100.00;99803.41;5072483;28;20062;-75
2023/12/23 09:42:34;;;;;;;2.17;0.80;;;;;;;8.43;100.00;99823.56;5072031;28;20513;-75
2023/12/23 09:45:40;;;;;;;2.45;0.30;;;;;;;8.43;100.00;99820.97;5051972;28;20409;-75
2023/12/23 09:48:43;;;;;;;1.13;0.30;;;;;;;8.44;100.00;99838.28;5071550;28;20051;-74
2023/12/23 09:51:47;;;;;;;2.33;0.63;;;;;;;8.48;100.00;99837.16;5071141;28;20139;-76
2023/12/23 09:54:53;;;;;;;3.30;0.65;;;;;;;8.54;100.00;99836.00;5070552;28;20047;-76
2023/12/23 09:57:57;;;;;;;2.25;0.38;;;;;;;8.55;100.00;99840.28;5067793;28;20062;-76
2023/12/23 10:01:00;;;;;;;2.15;0.35;;;;;;;8.59;100.00;99849.63;5072065;28;20386;-75
2023/12/23 10:04:04;;;;;;;2.17;0.57;;;;;;;9.08;100.00;99846.88;5070397;28;20095;-74
2023/12/23 10:07:08;;;;;;;;;;;;;;;9.05;98.29;99853.09;5071681;28;20044;-74
2023/12/23 10:10:12;;;;;;;0.85;0.20;;;;;;;8.82;98.84;99850.97;5070604;28;20450;-75
2023/12/23 10:13:16;;;;;;;;;;;;;;;8.59;100.00;99840.03;5071771;28;20162;-74
2023/12/23 10:16:19;;;;;;;2.17;0.43;;;;;;;8.53;100.00;99849.97;5070518;28;20061;-75
2023/12/23 10:19:24;;;;;;;;;;;;;;;8.53;100.00;99861.22;5073044;28;20067;-73
2023/12/23 10:22:28;;;;;;;8.00;1.92;;;;;;;8.59;100.00;99854.84;5071065;28;20393;-75
2023/12/23 10:25:32;;;;;;;2.10;0.40;;;;;;;8.48;100.00;99844.97;5072263;28;20043;-77
2023/12/23 10:28:37;;;;;;;1.63;0.60;;;;;;;8.54;100.00;99846.44;5072397;28;20101;-75
2023/12/23 10:31:41;;;;;;;0.98;0.25;;;;;;;8.43;100.00;99854.84;5072558;28;20035;-75
2023/12/23 10:34:49;;;;;;;1.95;0.30;;;;;;;8.40;100.00;99844.56;5071704;28;20127;-74
2023/12/23 10:37:58;;;;;;;2.30;0.40;;;;;;;8.49;100.00;99870.13;5072403;28;20446;-74
2023/12/23 10:41:45;;;;;;;1.95;0.95;;;;;;;8.54;100.00;99844.66;5072353;28;20047;-75
2023/12/23 10:44:51;;;;;;;3.72;0.50;;;;;;;8.50;100.00;99824.91;5071921;28;20052;-75
2023/12/23 10:47:58;;;;;;;1.02;0.30;;;;;;;8.57;100.00;99856.69;5071399;28;20090;-75
2023/12/23 10:51:03;;;;;;;2.40;0.85;;;;;;;8.52;100.00;99851.72;5072188;28;20083;-73
2023/12/23 10:54:10;;;;;;;8.18;1.67;;;;;;;8.93;100.00;99837.31;5072325;28;20511;-75
2023/12/23 10:57:15;;;;;;;3.85;1.50;;;;;;;8.81;100.00;99838.88;5071387;28;20079;-74
2023/12/23 11:00:18;;;;;;;2.15;0.60;;;;;;;8.79;100.00;99856.34;5072224;28;20046;-74
2023/12/23 11:03:24;;;;;;;;;;;;;;;8.88;100.00;99845.41;5076130;28;20040;-74
2023/12/23 11:06:32;;;;;;;3.05;1.27;;;;;;;8.83;99.28;99858.69;5076017;28;19919;-74
2023/12/23 11:09:36;;;;;;;2.53;0.80;;;;;;;8.85;99.39;99856.84;5075629;28;20129;-74
2023/12/23 11:12:39;;;;;;;3.53;0.60;;;;;;;8.96;98.98;99855.38;5075645;28;20039;-74
2023/12/23 11:15:43;;;;;;;1.75;0.40;;;;;;;8.99;95.96;99844.78;5075489;28;20055;-74
2023/12/23 11:18:52;;;;;;;4.00;0.90;;;;;;;9.00;96.77;99849.94;5076065;28;20082;-74
2023/12/23 11:22:24;;;;;;;1.17;0.32;;;;;;;9.00;96.16;99844.72;5075698;28;20196;-74
2023/12/23 11:25:42;;;;;;;4.10;0.50;;;;;;;9.01;96.63;99846.41;5075517;28;20055;-75
2023/12/23 11:28:48;;;;;;;2.95;0.82;;;;;;;8.98;97.10;99851.78;5074643;28;20102;-75
2023/12/23 11:32:09;;;;;;;1.77;0.65;;;;;;;8.97;97.03;99854.50;5073897;28;20067;-75
2023/12/23 11:35:12;;;;;;;2.90;0.90;;;;;;;9.03;96.49;99852.38;5073585;28;20051;-75
2023/12/23 11:38:16;;;;;;;4.70;0.95;;;;;;;9.07;95.61;99829.56;5073997;28;20456;-75
2023/12/23 11:41:19;;;;;;;;;;;;;;;9.19;95.25;99846.25;5071898;28;20043;-74
2023/12/23 11:44:25;;;;;;;5.25;2.40;;;;;;;9.20;92.36;99835.75;5072017;28;19923;-74
2023/12/23 11:47:29;;;;;;;3.35;0.50;;;;;;;9.29;90.35;99818.75;5072870;28;20043;-75
2023/12/23 11:50:32;;;;;;;5.63;1.75;;;;;;;9.35;91.65;99825.34;5078069;28;20106;-74
2023/12/23 11:53:36;;;;;;;;;;;;;;;9.40;91.10;99836.38;5074018;28;20040;-74
2023/12/23 11:56:40;;;;;;;4.35;1.40;;;;;;;9.42;90.49;99844.94;5074072;28;19958;-75
2023/12/23 11:59:45;;;;;;;3.70;0.80;;;;;;;9.35;90.47;99846.22;5071056;28;20098;-74
2023/12/23 12:02:48;;;;;;;5.68;1.42;;;;;;;9.30;91.55;99849.09;5071196;28;20055;-73
2023/12/23 12:05:58;;;;;;;2.05;0.77;;;;;;;9.27;91.86;99844.91;5074149;28;20043;-73
2023/12/23 12:09:07;;;;;;;8.70;1.27;;;;;;;9.31;92.44;99848.16;5071032;28;20254;-73
2023/12/23 12:12:19;;;;;;;5.03;2.55;;;;;;;9.27;92.48;99837.06;5073655;28;20074;-75
2023/12/23 12:15:23;;;;;;;3.92;0.88;;;;;;;9.25;91.98;99838.09;5053319;28;20110;-73
2023/12/23 12:18:26;;;;;;;6.82;4.05;;;;;;;9.28;92.59;99843.13;5072007;28;20115;-74
2023/12/23 12:21:29;;;;;;;;;;;;;;;9.28;92.47;99845.72;5075017;28;20048;-74
2023/12/23 12:24:34;;;;;;;6.20;1.67;;;;;;;9.36;92.90;99842.69;5058356;28;19918;-74
2023/12/23 12:27:38;;;;;;;8.25;3.03;;;;;;;9.22;93.28;99870.44;5072207;28;20044;-74
2023/12/23 12:30:43;;;;;;;4.72;2.60;;;;;;;9.19;93.23;99856.69;5070189;28;20040;-74
2023/12/23 12:33:47;;;;;;;6.45;2.65;;;;;;;9.17;93.92;99838.53;5067880;28;20042;-74
2023/12/23 12:36:51;;;;;;;5.18;1.98;;;;;;;9.17;93.69;99824.66;5070098;28;20043;-73
2023/12/23 12:39:54;;;;;;;4.75;1.70;;;;;;;9.16;92.58;99828.22;5068136;28;20047;-73
2023/12/23 12:43:05;;;;;;;6.03;2.05;;;;;;;9.11;94.79;99841.50;5068977;28;20167;-73
2023/12/23 12:46:09;;;;;;;4.85;1.42;;;;;;;9.10;94.97;99844.19;5069974;28;20042;-73
2023/12/23 12:49:12;;;;;;;5.15;1.83;;;;;;;9.07;94.93;99845.22;5071816;28;20131;-74
2023/12/23 12:52:17;;;;;;;3.53;0.90;;;;;;;8.92;95.82;99846.91;5071415;28;20052;-74
2023/12/23 12:55:23;;;;;;;4.95;1.30;;;;;;;8.95;97.69;99866.75;5068652;28;20035;-75
2023/12/23 12:58:26;;;;;;;4.50;1.10;;;;;;;8.92;96.31;99875.59;5067648;28;20039;-74
2023/12/23 13:01:29;;;;;;;9.93;4.97;;;;;;;8.93;97.64;99885.06;5062743;28;20052;-74
2023/12/23 13:04:33;;;;;;;;;;;;;;;8.97;99.10;99883.16;5073271;28;20047;-74
2023/12/23 13:07:36;;;;;;;11.68;3.13;;;;;;;9.52;100.00;99875.63;5062929;28;19933;-69
2023/12/23 13:10:39;;;;;;;6.80;2.40;;;;;;;9.68;99.31;99893.84;5057172;28;20162;-68
2023/12/23 13:13:44;;;;;;;;;;;;;;;9.41;96.60;99898.03;5073829;28;20464;-76
2023/12/23 13:16:47;;;;;;;7.80;3.72;;;;;;;9.32;98.88;99896.81;5069686;28;20392;-73
2023/12/23 13:19:50;;;;;;;7.43;5.78;;;;;;;9.29;97.92;99897.84;5065591;28;20043;-73
2023/12/23 13:22:54;;;;;;;;;;;;;;;9.20;97.81;99903.56;5062939;28;20094;-73
2023/12/23 13:25:57;;;;;;;7.20;3.97;;;;;;;9.19;98.23;99911.47;5064158;28;19935;-75
2023/12/23 13:29:00;;;;;;;7.53;2.20;;;;;;;9.06;97.30;99911.31;5062658;28;20086;-75
2023/12/23 13:32:04;;;;;;;;;;;;;;;9.13;94.85;99899.63;5069264;28;20121;-74
2023/12/23 13:35:13;;;;;;;3.65;1.73;;;;;;;9.20;93.55;99894.91;5067746;28;19924;-73
2023/12/23 13:38:17;;;;;;;;;;;;;;;9.24;91.78;99897.25;5060978;28;20110;-73
2023/12/23 13:41:25;;;;;;;;;;;;;;;9.23;89.34;99903.41;5069355;28;20336;-76
2023/12/23 13:44:29;;;;;;;3.22;0.90;;;;;;;9.33;87.97;99916.75;5063262;28;19919;-75
2023/12/23 13:47:33;;;;;;;2.40;0.63;;;;;;;9.34;87.35;99905.38;5065370;28;20428;-76
2023/12/23 13:50:36;;;;;;;4.00;0.90;;;;;;;9.39;88.10;99924.25;5070128;28;20047;-75
2023/12/23 13:53:39;;;;;;;2.70;0.85;;;;;;;9.43;86.85;99938.78;5065309;28;20075;-74
2023/12/23 13:56:50;;;;;;;3.95;1.42;;;;;;;9.39;87.89;99928.63;5060893;28;20523;-74
2023/12/23 13:59:55;;;;;;;3.22;1.25;;;;;;;9.45;87.17;99931.72;5061312;28;20087;-78
2023/12/23 14:02:58;;;;;;;4.60;1.10;;;;;;;9.51;85.34;99936.59;5066802;28;20426;-76
2023/12/23 14:06:02;;;;;;;3.22;0.90;;;;;;;9.49;83.83;99950.66;5071226;28;20039;-80
2023/12/23 14:09:06;;;;;;;4.80;1.45;;;;;;;9.55;83.14;99950.31;5061146;28;20052;-77
2023/12/23 14:12:09;;;;;;;4.18;2.00;;;;;;;9.54;82.97;99952.09;5067176;28;20038;-74
2023/12/23 14:15:12;;;;;;;5.43;2.00;;;;;;;9.58;84.07;99959.75;5067978;28;20653;-75
2023/12/23 14:18:16;;;;;;;5.10;1.70;;;;;;;9.62;83.38;99969.06;5069590;28;20113;-75
2023/12/23 14:21:19;;;;;;;3.60;0.90;;;;;;;9.58;82.54;99970.19;5070132;28;20072;-76
2023/12/23 14:24:22;;;;;;;4.32;1.98;;;;;;;9.52;81.30;99980.03;5065413;28;20047;-76
2023/12/23 14:27:26;;;;;;;;;;;;;;;9.51;82.13;99990.56;5070555;28;20144;-76
2023/12/23 14:30:29;;;;;;;5.95;2.25;;;;;;;9.53;82.74;99979.09;5071421;28;19957;-76
2023/12/23 14:33:33;;;;;;;5.25;2.90;;;;;;;9.49;82.31;99982.81;5062502;28;20473;-75
2023/12/23 14:36:36;;;;;;;6.28;3.50;;;;;;;9.49;82.54;99982.81;5056600;28;20043;-75
2023/12/23 14:39:40;;;;;;;3.55;1.00;;;;;;;9.44;81.43;100008.31;5062602;28;20039;-74
2023/12/23 14:42:43;;;;;;;;;;;;;;;9.47;81.40;99999.47;5074462;28;20103;-74
2023/12/23 14:45:46;;;;;;;3.33;1.23;;;;;;;9.50;82.50;100021.00;5072762;28;20392;-75
2023/12/23 14:48:49;;;;;;;8.57;1.63;;;;;;;9.44;83.51;100021.34;5075562;28;20101;-74
2023/12/23 14:51:52;;;;;;;;;;;;;;;9.25;86.36;100028.50;5075887;28;20612;-75